Time;durP1;ratioP1;P1;durP2;ratioP2;P2;SDS_P1;SDS_P2;PMS_P1;PMS_P2;Temp;Humidity;BMP_temperature;BMP_pressure;BME280_temperature;BME280_humidity;BME280_pressure;Samples;Min_cycle;Max_cycle;Signal;HPM_P1;HPM_P2
2022/10/23 00:01:45;;;;;;;;;;;;;;;18.27;41.12;95623.00;6097547;19;1452;-67
2022/10/23 00:03:49;;;;;;;;;;;;;;;18.28;41.29;95621.16;6119554;19;1029;-68
2022/10/23 00:05:55;;;;;;;;;;;;;;;18.28;41.32;95615.84;6118763;19;1857;-68
2022/10/23 00:07:59;;;;;;;;;;;;;;;18.28;41.39;95626.47;6119461;19;1069;-68
2022/10/23 00:10:02;;;;;;;;;;;;;;;18.28;41.40;95615.84;6120864;19;1050;-67
2022/10/23 00:12:06;;;;;;;;;;;;;;;18.28;41.50;95613.19;6119679;19;1038;-68
2022/10/23 00:14:10;;;;;;;;;;;;;;;18.29;41.12;95617.50;6096525;19;1046;-67
2022/10/23 00:16:13;;;;;;;;;;;;;;;18.29;41.23;95628.13;6120367;19;1061;-67
2022/10/23 00:18:17;;;;;;;;;;;;;;;18.28;41.27;95611.34;6120023;19;1006;-67
2022/10/23 00:20:20;;;;;;;;;;;;;;;18.28;41.50;95611.34;6120232;19;1026;-67
2022/10/23 00:22:26;;;;;;;;;;;;;;;18.29;41.04;95617.50;6120592;19;1108;-68
2022/10/23 00:24:29;;;;;;;;;;;;;;;18.30;41.05;95627.13;6096440;19;1181;-67
2022/10/23 00:26:33;;;;;;;;;;;;;;;18.28;41.50;95610.53;6118140;19;1845;-67
2022/10/23 00:28:36;;;;;;;;;;;;;;;18.29;41.09;95598.88;6120186;19;1124;-68
2022/10/23 00:30:40;;;;;;;;;;;;;;;18.29;41.40;95582.91;6119881;19;1211;-67
2022/10/23 00:32:43;;;;;;;;;;;;;;;18.27;41.12;95590.25;6119691;19;1120;-67
2022/10/23 00:34:46;;;;;;;;;;;;;;;18.28;41.38;95600.69;6119142;19;948;-68
2022/10/23 00:36:50;;;;;;;;;;;;;;;18.29;41.49;95606.84;6096625;19;1110;-68
2022/10/23 00:38:56;;;;;;;;;;;;;;;18.28;41.42;95607.88;6119759;19;1069;-67
2022/10/23 00:40:59;;;;;;;;;;;;;;;18.30;41.44;95616.50;6119403;19;1018;-67
2022/10/23 00:43:02;;;;;;;;;;;;;;;18.28;41.35;95613.19;6119701;19;1058;-67
2022/10/23 00:45:17;;;;;;;;;;;;;;;18.29;41.03;95612.16;6119546;19;1847;-67
2022/10/23 00:47:21;;;;;;;;;;;;;;;18.29;41.04;95606.84;6096054;19;1253;-67
2022/10/23 00:49:24;;;;;;;;;;;;;;;18.28;41.24;95598.03;6118191;19;1087;-67
2022/10/23 00:51:29;;;;;;;;;;;;;;;18.28;41.24;95600.69;6117326;19;1476;-67
2022/10/23 00:53:32;;;;;;;;;;;;;;;18.29;41.50;95606.84;6119580;19;1038;-68
2022/10/23 00:55:40;;;;;;;;;;;;;;;18.29;41.41;95590.88;6118740;19;970;-68
2022/10/23 00:57:44;;;;;;;;;;;;;;;18.29;41.45;95591.69;6113280;19;1240;-67
2022/10/23 00:59:47;;;;;;;;;;;;;;;18.29;41.47;95590.88;6105488;19;1146;-68
2022/10/23 01:01:51;;;;;;;;;;;;;;;18.30;41.07;95597.88;6117463;19;1427;-68
2022/10/23 01:03:54;;;;;;;;;;;;;;;18.30;41.22;95595.22;6118805;19;1017;-67
2022/10/23 01:06:02;;;;;;;;;;;;;;;18.32;41.45;95609.13;6118185;19;1841;-67
2022/10/23 01:08:10;;;;;;;;;;;;;;;18.30;41.03;95632.47;6117878;19;1286;-68
2022/10/23 01:10:17;;;;;;;;;;;;;;;18.30;41.30;95630.63;6094506;19;1422;-67
2022/10/23 01:12:26;;;;;;;;;;;;;;;18.29;41.11;95617.50;6118804;19;1072;-67
2022/10/23 01:14:33;;;;;;;;;;;;;;;18.30;41.30;95619.16;6118546;19;1026;-68
2022/10/23 01:16:41;;;;;;;;;;;;;;;18.29;41.15;95638.78;6119299;19;1024;-68
2022/10/23 01:18:47;;;;;;;;;;;;;;;18.30;41.07;95643.91;6118273;19;1063;-67
2022/10/23 01:20:54;;;;;;;;;;;;;;;18.30;41.11;95645.75;6107363;19;1330;-68
2022/10/23 01:23:13;;;;;;;;;;;;;;;18.31;41.16;95663.38;6106731;19;1216;-67
2022/10/23 01:25:24;;;;;;;;;;;;;;;18.31;41.32;95674.00;6117845;19;1857;-67
2022/10/23 01:27:34;;;;;;;;;;;;;;;18.31;41.51;95671.34;6118364;19;1024;-68
2022/10/23 01:29:41;;;;;;;;;;;;;;;18.30;41.35;95677.69;6118565;19;1069;-67
2022/10/23 01:31:47;;;;;;;;;;;;;;;18.31;41.09;95674.00;6115249;19;1061;-67
2022/10/23 01:33:54;;;;;;;;;;;;;;;18.30;41.37;95672.38;6103120;19;1204;-67
2022/10/23 01:36:01;;;;;;;;;;;;;;;18.30;41.48;95689.16;6118242;19;1028;-68
2022/10/23 01:38:07;;;;;;;;;;;;;;;18.31;41.03;95690.78;6118564;19;979;-67
2022/10/23 01:40:13;;;;;;;;;;;;;;;18.30;41.09;95694.47;6118004;19;962;-67
2022/10/23 01:42:18;;;;;;;;;;;;;;;18.30;41.28;95696.31;6118548;19;959;-67
2022/10/23 01:44:26;;;;;;;;;;;;;;;18.29;41.06;95697.28;6094708;19;1132;-68
2022/10/23 01:46:30;;;;;;;;;;;;;;;18.30;41.03;95694.47;6117045;19;1859;-67
2022/10/23 01:48:36;;;;;;;;;;;;;;;18.30;41.35;95698.97;6117180;19;1029;-67
2022/10/23 01:50:41;;;;;;;;;;;;;;;18.29;41.08;95702.63;6118548;19;1028;-67
2022/10/23 01:52:45;;;;;;;;;;;;;;;18.28;41.25;95703.63;6118223;19;989;-67
2022/10/23 01:54:49;;;;;;;;;;;;;;;18.28;41.20;95695.66;6106155;19;1136;-68
2022/10/23 01:56:56;;;;;;;;;;;;;;;18.28;41.28;95680.50;6105629;19;1089;-68
2022/10/23 01:59:00;;;;;;;;;;;;;;;18.29;41.17;95670.69;6118484;19;1036;-66
2022/10/23 02:01:07;;;;;;;;;;;;;;;18.28;41.02;95666.38;6116824;19;1493;-65
2022/10/23 02:03:11;;;;;;;;;;;;;;;18.28;41.14;95677.84;6117936;19;1037;-66
2022/10/23 02:05:16;;;;;;;;;;;;;;;18.29;41.01;95676.00;6123928;19;1227;-65
2022/10/23 02:07:20;;;;;;;;;;;;;;;18.29;41.34;95681.34;6102159;19;1849;-65
2022/10/23 02:09:23;;;;;;;;;;;;;;;18.30;41.15;95699.78;6123963;19;1105;-65
2022/10/23 02:11:26;;;;;;;;;;;;;;;18.29;41.06;95686.66;6124866;19;1029;-66
2022/10/23 02:13:34;;;;;;;;;;;;;;;18.28;41.07;95691.16;6124313;19;1112;-65
2022/10/23 02:15:39;;;;;;;;;;;;;;;18.28;41.40;95688.50;6124744;19;1024;-65
2022/10/23 02:17:51;;;;;;;;;;;;;;;18.28;41.45;95680.50;6114741;19;1016;-65
2022/10/23 02:19:59;;;;;;;;;;;;;;;18.28;41.16;95677.84;6121014;19;1307;-65
2022/10/23 02:22:08;;;;;;;;;;;;;;;18.30;41.00;95683.00;6124363;19;1046;-66
2022/10/23 02:24:13;;;;;;;;;;;;;;;18.29;41.42;95678.66;6123694;19;1057;-65
2022/10/23 02:26:19;;;;;;;;;;;;;;;18.28;41.43;95679.69;6123013;19;1853;-65
2022/10/23 02:28:26;;;;;;;;;;;;;;;18.29;41.39;95670.69;6124443;19;1025;-64
2022/10/23 02:30:31;;;;;;;;;;;;;;;18.27;41.08;95678.88;6105117;19;1088;-64
2022/10/23 02:32:36;;;;;;;;;;;;;;;18.29;41.08;95681.34;6123911;19;1001;-65
2022/10/23 02:34:42;;;;;;;;;;;;;;;18.27;41.41;95678.88;6123534;19;981;-65
2022/10/23 02:36:45;;;;;;;;;;;;;;;18.29;41.23;95691.97;6124080;19;1013;-64
2022/10/23 02:38:49;;;;;;;;;;;;;;;18.29;41.13;95684.00;6123792;19;1391;-65
2022/10/23 02:40:53;;;;;;;;;;;;;;;18.28;41.00;95690.31;6103986;19;1062;-65
2022/10/23 02:42:58;;;;;;;;;;;;;;;18.28;41.19;95696.47;6123563;19;1034;-64
2022/10/23 02:45:05;;;;;;;;;;;;;;;18.28;41.32;95700.97;6123856;19;1049;-64
2022/10/23 02:47:23;;;;;;;;;;;;;;;18.28;41.38;95707.13;6121227;19;2157;-65
2022/10/23 02:49:29;;;;;;;;;;;;;;;18.28;41.42;95707.13;6123193;19;1087;-65
2022/10/23 02:51:40;;;;;;;;;;;;;;;18.28;41.44;95700.97;6111861;19;1532;-65
2022/10/23 02:53:48;;;;;;;;;;;;;;;18.28;41.31;95693.81;6112816;19;1066;-65
2022/10/23 02:55:58;;;;;;;;;;;;;;;18.28;41.04;95696.47;6123284;19;1128;-65
2022/10/23 02:58:07;;;;;;;;;;;;;;;18.28;41.00;95693.00;6120866;19;1446;-64
2022/10/23 03:00:14;;;;;;;;;;;;;;;18.28;41.43;95693.00;6123472;19;1037;-65
2022/10/23 03:02:21;;;;;;;;;;;;;;;18.28;41.17;95693.81;6122337;19;1144;-65
2022/10/23 03:04:26;;;;;;;;;;;;;;;18.28;41.06;95688.50;6102425;19;1140;-64
2022/10/23 03:06:30;;;;;;;;;;;;;;;18.27;41.45;95694.84;6121624;19;1840;-64
2022/10/23 03:08:45;;;;;;;;;;;;;;;18.28;41.25;95706.28;6120615;19;1057;-66
2022/10/23 03:10:48;;;;;;;;;;;;;;;18.28;40.98;95707.13;6123091;19;1081;-64
2022/10/23 03:12:52;;;;;;;;;;;;;;;18.29;41.21;95713.25;6122787;19;1145;-64
2022/10/23 03:14:55;;;;;;;;;;;;;;;18.29;41.24;95723.91;6100630;19;1192;-65
2022/10/23 03:16:59;;;;;;;;;;;;;;;18.28;41.09;95722.25;6121259;19;1099;-65
2022/10/23 03:19:02;;;;;;;;;;;;;;;18.29;41.03;95729.22;6122510;19;1116;-67
2022/10/23 03:21:05;;;;;;;;;;;;;;;18.28;41.07;95725.72;6122584;19;1148;-64
2022/10/23 03:23:09;;;;;;;;;;;;;;;18.29;41.23;95731.88;6122132;19;1085;-64
2022/10/23 03:25:15;;;;;;;;;;;;;;;18.29;41.44;95731.88;6122515;19;1144;-64
2022/10/23 03:27:18;;;;;;;;;;;;;;;18.28;41.09;95728.41;6103640;19;1865;-65
2022/10/23 03:29:22;;;;;;;;;;;;;;;18.29;41.12;95734.53;6123215;19;806;-65
2022/10/23 03:31:25;;;;;;;;;;;;;;;18.28;41.44;95728.41;6121936;19;1033;-65
2022/10/23 03:33:28;;;;;;;;;;;;;;;18.28;41.05;95728.41;6122451;19;1025;-65
2022/10/23 03:35:32;;;;;;;;;;;;;;;18.28;41.19;95722.25;6122103;19;1057;-65
2022/10/23 03:37:35;;;;;;;;;;;;;;;18.27;40.97;95725.94;6102855;19;1215;-65
2022/10/23 03:39:39;;;;;;;;;;;;;;;18.28;41.40;95722.25;6121666;19;1047;-66
2022/10/23 03:41:45;;;;;;;;;;;;;;;18.27;41.05;95726.75;6121984;19;1053;-66
2022/10/23 03:43:48;;;;;;;;;;;;;;;18.28;41.05;95735.56;6122491;19;1096;-66
2022/10/23 03:45:52;;;;;;;;;;;;;;;18.28;40.98;95732.91;6119775;19;1427;-66
2022/10/23 03:47:55;;;;;;;;;;;;;;;18.28;41.41;95732.91;6119469;19;1846;-66
2022/10/23 03:49:58;;;;;;;;;;;;;;;18.28;41.05;95735.56;6103444;19;1004;-65
2022/10/23 03:52:02;;;;;;;;;;;;;;;18.28;41.05;95732.91;6122068;19;1131;-63
2022/10/23 03:54:05;;;;;;;;;;;;;;;18.28;41.16;95735.56;6121064;19;1141;-64
2022/10/23 03:56:09;;;;;;;;;;;;;;;18.28;41.36;95736.38;6121659;19;1124;-63
2022/10/23 03:58:14;;;;;;;;;;;;;;;18.28;41.32;95735.56;6121205;19;1112;-66
2022/10/23 04:00:18;;;;;;;;;;;;;;;18.27;41.32;95736.56;6101957;19;1500;-64
2022/10/23 04:02:21;;;;;;;;;;;;;;;18.28;40.96;95739.03;6121165;19;988;-64
2022/10/23 04:04:25;;;;;;;;;;;;;;;18.29;41.37;95745.19;6121828;19;1133;-63
2022/10/23 04:06:28;;;;;;;;;;;;;;;18.28;41.43;95743.53;6119804;19;1880;-64
2022/10/23 04:08:31;;;;;;;;;;;;;;;18.29;41.18;95742.53;6119435;19;1113;-63
2022/10/23 04:10:35;;;;;;;;;;;;;;;18.28;41.39;95746.19;6121179;19;1050;-64
2022/10/23 04:12:38;;;;;;;;;;;;;;;18.27;41.14;95745.38;6101595;19;1116;-64
2022/10/23 04:14:44;;;;;;;;;;;;;;;18.28;41.26;95748.84;6121534;19;972;-63
2022/10/23 04:16:47;;;;;;;;;;;;;;;18.28;41.40;95762.16;6120839;19;963;-63
2022/10/23 04:18:50;;;;;;;;;;;;;;;18.29;41.19;95758.47;6120387;19;1078;-63
2022/10/23 04:20:54;;;;;;;;;;;;;;;18.29;41.25;95761.13;6120882;19;1166;-65
2022/10/23 04:22:57;;;;;;;;;;;;;;;18.28;41.00;95757.66;6100458;19;1214;-64
2022/10/23 04:25:00;;;;;;;;;;;;;;;18.27;41.37;95769.31;6120639;19;954;-64
2022/10/23 04:27:04;;;;;;;;;;;;;;;18.28;41.32;95764.81;6119214;19;1849;-64
2022/10/23 04:29:07;;;;;;;;;;;;;;;18.28;41.21;95762.97;6119534;19;1392;-64
2022/10/23 04:31:13;;;;;;;;;;;;;;;18.28;41.03;95764.81;6120055;19;1058;-64
2022/10/23 04:33:16;;;;;;;;;;;;;;;18.29;41.00;95766.47;6120401;19;1058;-64
2022/10/23 04:35:20;;;;;;;;;;;;;;;18.27;41.29;95758.69;6100942;19;1062;-64
2022/10/23 04:37:23;;;;;;;;;;;;;;;18.27;41.39;95758.69;6120266;19;1774;-64
2022/10/23 04:39:27;;;;;;;;;;;;;;;18.29;41.19;95761.13;6120264;19;1081;-64
2022/10/23 04:41:30;;;;;;;;;;;;;;;18.27;41.37;95756.00;6120535;19;1021;-64
2022/10/23 04:43:33;;;;;;;;;;;;;;;18.28;41.23;95757.66;6120473;19;1617;-65
2022/10/23 04:45:37;;;;;;;;;;;;;;;18.27;41.04;95763.19;6099890;19;1073;-65
2022/10/23 04:47:43;;;;;;;;;;;;;;;18.28;40.98;95759.50;6118513;19;1845;-64
2022/10/23 04:49:46;;;;;;;;;;;;;;;18.27;41.38;95760.50;6120373;19;1046;-65
2022/10/23 04:51:49;;;;;;;;;;;;;;;18.28;41.23;95762.16;6120431;19;950;-64
2022/10/23 04:53:53;;;;;;;;;;;;;;;18.28;41.22;95767.47;6118916;19;1477;-64
2022/10/23 04:55:57;;;;;;;;;;;;;;;18.27;41.04;95771.97;6120170;19;974;-64
2022/10/23 04:58:01;;;;;;;;;;;;;;;18.27;41.40;95758.69;6098726;19;1122;-65
2022/10/23 05:00:05;;;;;;;;;;;;;;;18.27;41.39;95768.50;6119170;19;958;-64
2022/10/23 05:02:08;;;;;;;;;;;;;;;18.27;40.96;95763.19;6120169;19;958;-64
2022/10/23 05:04:20;;;;;;;;;;;;;;;18.27;41.08;95763.19;6118423;19;1108;-64
2022/10/23 05:06:24;;;;;;;;;;;;;;;18.27;41.21;95773.81;6118591;19;1312;-65
2022/10/23 05:08:27;;;;;;;;;;;;;;;18.27;41.38;95773.81;6097427;19;1846;-64
2022/10/23 05:10:31;;;;;;;;;;;;;;;18.27;41.08;95765.84;6119238;19;1053;-64
2022/10/23 05:12:34;;;;;;;;;;;;;;;18.28;41.11;95768.31;6120003;19;1048;-65
2022/10/23 05:14:38;;;;;;;;;;;;;;;18.27;41.38;95764.00;6119032;19;1140;-64
2022/10/23 05:16:44;;;;;;;;;;;;;;;18.27;41.25;95768.50;6119259;19;1089;-65
2022/10/23 05:18:49;;;;;;;;;;;;;;;18.28;41.44;95772.81;6119109;19;1120;-65
2022/10/23 05:20:58;;;;;;;;;;;;;;;18.28;40.99;95776.28;6103003;19;1160;-64
2022/10/23 05:23:02;;;;;;;;;;;;;;;18.28;41.34;95786.09;6118895;19;1100;-65
2022/10/23 05:25:06;;;;;;;;;;;;;;;18.28;40.96;95780.78;6119321;19;1132;-64
2022/10/23 05:27:09;;;;;;;;;;;;;;;18.27;41.23;95773.81;6119274;19;1837;-64
2022/10/23 05:29:12;;;;;;;;;;;;;;;18.28;40.92;95786.09;6118546;19;1120;-65
2022/10/23 05:31:17;;;;;;;;;;;;;;;18.28;41.16;95778.13;6099767;19;1136;-65
2022/10/23 05:33:20;;;;;;;;;;;;;;;18.27;41.17;95785.28;6119119;19;1056;-65
2022/10/23 05:35:24;;;;;;;;;;;;;;;18.27;41.03;95790.59;6119253;19;1629;-64
2022/10/23 05:37:31;;;;;;;;;;;;;;;18.28;40.98;95789.59;6117894;19;1128;-65
2022/10/23 05:39:34;;;;;;;;;;;;;;;18.28;41.27;95794.09;6117491;19;1061;-65
2022/10/23 05:41:38;;;;;;;;;;;;;;;18.29;41.36;95811.69;6113053;19;1160;-68
2022/10/23 05:43:41;;;;;;;;;;;;;;;18.31;41.23;95812.34;6107315;19;1102;-64
2022/10/23 05:45:44;;;;;;;;;;;;;;;18.32;40.95;95814.84;6119359;19;1279;-64
2022/10/23 05:47:48;;;;;;;;;;;;;;;18.33;40.94;95827.13;6117882;19;1837;-65
2022/10/23 05:49:51;;;;;;;;;;;;;;;18.33;41.30;95823.66;6118425;19;1042;-64
2022/10/23 05:51:54;;;;;;;;;;;;;;;18.33;40.95;95839.63;6118099;19;1140;-64
2022/10/23 05:54:00;;;;;;;;;;;;;;;18.32;41.05;95846.78;6099506;19;1009;-64
2022/10/23 05:56:07;;;;;;;;;;;;;;;18.33;41.22;95837.78;6118497;19;1041;-64
2022/10/23 05:58:11;;;;;;;;;;;;;;;18.32;41.22;95846.78;6118875;19;1021;-64
2022/10/23 06:00:14;;;;;;;;;;;;;;;18.32;41.11;95841.44;6117751;19;1276;-65
2022/10/23 06:02:18;;;;;;;;;;;;;;;18.33;41.34;95839.63;6118489;19;1041;-64
2022/10/23 06:04:21;;;;;;;;;;;;;;;18.32;40.94;95845.91;6112554;19;1035;-65
2022/10/23 06:06:24;;;;;;;;;;;;;;;18.32;41.27;95851.25;6105521;19;1321;-64
2022/10/23 06:08:28;;;;;;;;;;;;;;;18.32;41.02;95856.56;6116439;19;1850;-64
2022/10/23 06:10:35;;;;;;;;;;;;;;;18.33;40.99;95852.91;6118116;19;1038;-64
2022/10/23 06:12:38;;;;;;;;;;;;;;;18.33;41.34;95856.41;6118381;19;1022;-65
2022/10/23 06:14:42;;;;;;;;;;;;;;;18.33;40.96;95855.56;6117353;19;1148;-64
2022/10/23 06:16:45;;;;;;;;;;;;;;;18.32;41.06;95857.41;6098870;19;1059;-64
2022/10/23 06:18:49;;;;;;;;;;;;;;;18.33;41.04;95852.91;6118168;19;1085;-65
2022/10/23 06:20:52;;;;;;;;;;;;;;;18.33;41.04;95855.56;6117493;19;954;-65
2022/10/23 06:22:55;;;;;;;;;;;;;;;18.33;41.31;95852.91;6118129;19;1065;-65
2022/10/23 06:24:59;;;;;;;;;;;;;;;18.34;40.86;95849.25;6117996;19;1297;-64
2022/10/23 06:27:05;;;;;;;;;;;;;;;18.34;41.26;95857.22;6113657;19;1090;-65
2022/10/23 06:29:08;;;;;;;;;;;;;;;18.35;41.10;95844.75;6106005;19;1026;-65
2022/10/23 06:31:13;;;;;;;;;;;;;;;18.34;41.17;95849.25;6117667;19;1033;-65
2022/10/23 06:33:16;;;;;;;;;;;;;;;18.35;41.24;95842.91;6118389;19;955;-65
2022/10/23 06:35:20;;;;;;;;;;;;;;;18.34;40.94;95849.25;6118433;19;1352;-65
2022/10/23 06:37:23;;;;;;;;;;;;;;;18.35;40.98;95850.06;6117642;19;1029;-65
2022/10/23 06:39:26;;;;;;;;;;;;;;;18.36;41.22;95862.38;6097384;19;1083;-65
2022/10/23 06:41:30;;;;;;;;;;;;;;;18.36;40.99;95863.19;6117733;19;977;-65
2022/10/23 06:43:36;;;;;;;;;;;;;;;18.35;40.85;95866.84;6116943;19;1042;-67
2022/10/23 06:45:39;;;;;;;;;;;;;;;18.35;40.79;95858.03;6117137;19;990;-65
2022/10/23 06:47:42;;;;;;;;;;;;;;;18.36;41.04;95862.38;6117211;19;1861;-65
2022/10/23 06:49:46;;;;;;;;;;;;;;;18.36;41.25;95862.38;6115048;19;1029;-65
2022/10/23 06:51:49;;;;;;;;;;;;;;;18.36;41.05;95857.06;6108884;19;1399;-64
2022/10/23 06:53:52;;;;;;;;;;;;;;;18.35;41.02;95856.19;6123824;19;1024;-65
2022/10/23 06:56:00;;;;;;;;;;;;;;;18.34;41.06;95859.88;6123533;19;1025;-65
2022/10/23 06:58:09;;;;;;;;;;;;;;;18.36;41.24;95860.53;6123023;19;1064;-65
2022/10/23 07:00:15;;;;;;;;;;;;;;;18.36;41.24;95865.88;6123036;19;1123;-65
2022/10/23 07:02:19;;;;;;;;;;;;;;;18.36;40.95;95847.22;6101362;19;1404;-65
2022/10/23 07:04:22;;;;;;;;;;;;;;;18.36;40.92;95849.06;6123303;19;972;-64
2022/10/23 07:06:25;;;;;;;;;;;;;;;18.36;41.25;95862.38;6121085;19;1384;-65
2022/10/23 07:08:29;;;;;;;;;;;;;;;18.35;41.07;95858.88;6120815;19;1837;-65
2022/10/23 07:10:32;;;;;;;;;;;;;;;18.36;40.86;95863.19;6122910;19;1123;-64
2022/10/23 07:12:36;;;;;;;;;;;;;;;18.37;41.19;95864.03;6113114;19;1140;-65
2022/10/23 07:14:39;;;;;;;;;;;;;;;18.36;41.16;95863.19;6112588;19;1057;-65
2022/10/23 07:16:45;;;;;;;;;;;;;;;18.38;41.08;95860.34;6122678;19;1163;-65
2022/10/23 07:18:49;;;;;;;;;;;;;;;18.38;40.83;95860.34;6123112;19;1643;-66
2022/10/23 07:20:59;;;;;;;;;;;;;;;18.36;41.06;95857.88;6121693;19;1057;-65
2022/10/23 07:23:02;;;;;;;;;;;;;;;18.35;40.75;95861.53;6122863;19;1120;-65
2022/10/23 07:25:06;;;;;;;;;;;;;;;18.37;40.79;95859.53;6102588;19;1397;-65
2022/10/23 07:27:09;;;;;;;;;;;;;;;18.36;40.87;95859.72;6122525;19;1053;-64
2022/10/23 07:29:13;;;;;;;;;;;;;;;18.37;41.24;95861.38;6120433;19;1829;-65
2022/10/23 07:31:16;;;;;;;;;;;;;;;18.37;40.97;95858.69;6121896;19;1133;-65
2022/10/23 07:33:22;;;;;;;;;;;;;;;18.36;41.25;95849.06;6122342;19;1104;-65
2022/10/23 07:35:26;;;;;;;;;;;;;;;18.36;40.98;95852.56;6111976;19;1126;-66
2022/10/23 07:37:30;;;;;;;;;;;;;;;18.36;41.07;95846.41;6112020;19;1113;-66
2022/10/23 07:39:33;;;;;;;;;;;;;;;18.37;41.06;95848.06;6122301;19;1013;-67
2022/10/23 07:41:36;;;;;;;;;;;;;;;18.36;41.06;95847.22;6122340;19;971;-65
2022/10/23 07:43:40;;;;;;;;;;;;;;;18.36;40.86;95849.91;6121592;19;1077;-65
2022/10/23 07:45:44;;;;;;;;;;;;;;;18.38;41.11;95852.38;6122127;19;1030;-66
2022/10/23 07:47:52;;;;;;;;;;;;;;;18.37;41.22;95853.38;6101337;19;1850;-64
2022/10/23 07:49:58;;;;;;;;;;;;;;;18.37;41.24;95859.53;6119503;19;1379;-64
2022/10/23 07:52:01;;;;;;;;;;;;;;;18.38;41.04;95863.00;6121827;19;1133;-65
2022/10/23 07:54:04;;;;;;;;;;;;;;;18.38;41.16;95860.34;6122155;19;985;-64
2022/10/23 07:56:13;;;;;;;;;;;;;;;18.38;41.19;95861.19;6122123;19;997;-64
2022/10/23 07:58:17;;;;;;;;;;;;;;;18.38;41.21;95863.88;6111871;19;1071;-65
2022/10/23 08:00:20;;;;;;;;;;;;;;;18.38;40.82;95866.53;6111603;19;1046;-64
2022/10/23 08:02:23;;;;;;;;;;;;;;;18.38;40.75;95865.66;6120001;19;1025;-64
2022/10/23 08:04:27;;;;;;;;;;;;;;;18.38;41.11;95847.91;6121478;19;972;-66
2022/10/23 08:06:34;;;;;;;;;;;;;;;18.39;40.90;95862.03;6120137;19;1342;-65
2022/10/23 08:08:37;;;;;;;;;;;;;;;18.39;40.90;95862.84;6120465;19;1850;-65
2022/10/23 08:10:41;;;;;;;;;;;;;;;18.38;41.05;95866.53;6101244;19;1325;-64
2022/10/23 08:12:45;;;;;;;;;;;;;;;18.39;41.21;95867.34;6120749;19;967;-64
2022/10/23 08:14:48;;;;;;;;;;;;;;;18.39;40.98;95867.34;6121345;19;950;-64
2022/10/23 08:16:51;;;;;;;;;;;;;;;18.39;41.13;95865.50;6120930;19;1124;-64
2022/10/23 08:18:55;;;;;;;;;;;;;;;18.38;41.13;95861.19;6121186;19;1073;-64
2022/10/23 08:21:01;;;;;;;;;;;;;;;18.38;40.94;95865.66;6110938;19;1216;-64
2022/10/23 08:23:07;;;;;;;;;;;;;;;18.39;40.95;95867.34;6111140;19;1077;-65
2022/10/23 08:25:11;;;;;;;;;;;;;;;18.38;41.13;95861.19;6121240;19;1069;-64
2022/10/23 08:27:14;;;;;;;;;;;;;;;18.40;41.08;95863.66;6120681;19;1013;-64
2022/10/23 08:29:18;;;;;;;;;;;;;;;18.38;40.97;95861.19;6119757;19;1837;-64
2022/10/23 08:31:22;;;;;;;;;;;;;;;18.39;40.76;95873.50;6120613;19;1261;-64
2022/10/23 08:33:25;;;;;;;;;;;;;;;18.38;40.81;95865.66;6101396;19;1186;-64
2022/10/23 08:35:28;;;;;;;;;;;;;;;18.38;40.92;95868.31;6120457;19;1033;-64
2022/10/23 08:37:32;;;;;;;;;;;;;;;18.38;41.00;95858.53;6121217;19;1032;-64
2022/10/23 08:39:38;;;;;;;;;;;;;;;18.38;41.09;95855.03;6120250;19;1057;-64
2022/10/23 08:41:42;;;;;;;;;;;;;;;18.39;40.82;95862.03;6119577;19;1088;-64
2022/10/23 08:43:48;;;;;;;;;;;;;;;18.39;41.22;95854.88;6110184;19;975;-64
2022/10/23 08:45:54;;;;;;;;;;;;;;;18.39;41.13;95859.38;6110371;19;1276;-64
2022/10/23 08:47:59;;;;;;;;;;;;;;;18.39;40.85;95856.69;6120630;19;1629;-64
2022/10/23 08:50:05;;;;;;;;;;;;;;;18.39;41.19;95852.19;6119677;19;1077;-64
2022/10/23 08:52:14;;;;;;;;;;;;;;;18.39;40.76;95849.53;6120379;19;969;-64
2022/10/23 08:54:20;;;;;;;;;;;;;;;18.41;41.22;95855.53;6118730;19;1539;-64
2022/10/23 08:56:28;;;;;;;;;;;;;;;18.39;41.04;95849.53;6100145;19;1048;-64
2022/10/23 08:58:36;;;;;;;;;;;;;;;18.39;41.17;95846.06;6120046;19;1100;-64
2022/10/23 09:00:39;;;;;;;;;;;;;;;18.38;41.18;95847.91;6119618;19;1140;-64
2022/10/23 09:02:44;;;;;;;;;;;;;;;18.39;41.24;95846.88;6119714;19;933;-64
2022/10/23 09:04:50;;;;;;;;;;;;;;;18.39;40.91;95851.38;6119721;19;1010;-64
2022/10/23 09:06:56;;;;;;;;;;;;;;;18.39;40.92;95852.19;6098786;19;1349;-64
2022/10/23 09:09:06;;;;;;;;;;;;;;;18.39;40.87;95854.88;6117845;19;1866;-65
2022/10/23 09:11:13;;;;;;;;;;;;;;;18.39;41.06;95854.88;6119978;19;1056;-64
2022/10/23 09:13:34;;;;;;;;;;;;;;;18.40;41.25;95853.03;6120103;19;1270;-64
2022/10/23 09:15:41;;;;;;;;;;;;;;;18.39;41.11;95854.03;6119373;19;1023;-64
2022/10/23 09:17:46;;;;;;;;;;;;;;;18.40;40.77;95850.38;6108278;19;1540;-64
2022/10/23 09:19:52;;;;;;;;;;;;;;;18.40;41.20;95848.53;6109472;19;957;-64
2022/10/23 09:21:57;;;;;;;;;;;;;;;18.39;40.84;95841.56;6119685;19;1109;-64
2022/10/23 09:24:00;;;;;;;;;;;;;;;18.38;40.83;95847.91;6119551;19;1025;-64
2022/10/23 09:26:04;;;;;;;;;;;;;;;18.40;41.24;95845.03;6118698;19;1098;-65
2022/10/23 09:28:08;;;;;;;;;;;;;;;18.39;40.91;95852.19;6120097;19;1248;-65
2022/10/23 09:30:14;;;;;;;;;;;;;;;18.41;41.23;95842.22;6097552;19;1853;-64
2022/10/23 09:32:18;;;;;;;;;;;;;;;18.40;41.24;95843.19;6119447;19;1045;-64
2022/10/23 09:34:22;;;;;;;;;;;;;;;18.39;40.97;95836.25;6117493;19;1479;-64
2022/10/23 09:36:28;;;;;;;;;;;;;;;18.40;40.83;95826.41;6119444;19;1000;-64
2022/10/23 09:38:33;;;;;;;;;;;;;;;18.41;40.90;95833.38;6119140;19;1001;-65
2022/10/23 09:40:40;;;;;;;;;;;;;;;18.40;40.90;95824.56;6108769;19;1059;-65
2022/10/23 09:42:52;;;;;;;;;;;;;;;18.42;41.11;95830.56;6110438;19;1373;-65
2022/10/23 09:44:56;;;;;;;;;;;;;;;18.41;41.22;95834.22;6119485;19;977;-65
2022/10/23 09:47:10;;;;;;;;;;;;;;;18.40;40.93;95835.22;6118979;19;1077;-65
2022/10/23 09:49:18;;;;;;;;;;;;;;;18.38;41.04;95837.25;6118036;19;1854;-65
2022/10/23 09:51:23;;;;;;;;;;;;;;;18.41;41.15;95833.38;6118472;19;993;-64
2022/10/23 09:53:33;;;;;;;;;;;;;;;18.40;40.85;95840.53;6101950;19;1005;-65
2022/10/23 09:55:36;;;;;;;;;;;;;;;18.39;40.89;95830.91;6118139;19;1136;-65
2022/10/23 09:57:42;;;;;;;;;;;;;;;18.40;41.22;95835.22;6119226;19;1028;-66
2022/10/23 09:59:45;;;;;;;;;;;;;;;18.40;40.95;95827.25;6118565;19;1073;-64
2022/10/23 10:01:50;;;;;;;;;;;;;;;18.39;41.26;95836.25;6119254;19;1044;-64
2022/10/23 10:03:56;;;;;;;;;;;;;;;18.40;41.22;95837.88;6098038;19;1636;-68
2022/10/23 10:06:00;;;;;;;;;;;;;;;18.41;40.85;95828.06;6119949;19;1601;-65
2022/10/23 10:08:07;;;;;;;;;;;;;;;18.43;41.77;95824.22;6119936;19;1646;-68
2022/10/23 10:10:15;;;;;;;;;;;;;;;18.48;42.29;95821.03;6117963;19;2172;-66
2022/10/23 10:12:30;;;;;;;;;;;;;;;18.39;42.78;95830.09;6120724;19;1813;-62
2022/10/23 10:14:48;;;;;;;;;;;;;;;18.39;42.77;95814.94;6110199;19;1819;-62
2022/10/23 10:16:53;;;;;;;;;;;;;;;18.36;42.93;95809.16;6111870;19;1979;-61
2022/10/23 10:19:04;;;;;;;;;;;;;;;18.40;42.88;95837.88;6118667;19;1627;-62
2022/10/23 10:21:16;;;;;;;;;;;;;;;18.33;42.91;95831.63;6119035;19;1517;-61
2022/10/23 10:23:24;;;;;;;;;;;;;;;18.39;43.41;95816.78;6120265;19;1799;-61
2022/10/23 10:25:31;;;;;;;;;;;;;;;18.46;43.17;95821.19;6121721;19;1580;-62
2022/10/23 10:27:42;;;;;;;;;;;;;;;18.47;43.58;95816.72;6100430;19;1275;-61
2022/10/23 10:29:52;;;;;;;;;;;;;;;18.38;43.68;95817.78;6123908;19;1849;-61
2022/10/23 10:32:00;;;;;;;;;;;;;;;18.31;43.86;95807.03;6126913;19;1669;-59
2022/10/23 10:34:12;;;;;;;;;;;;;;;18.31;43.55;95815.81;6122938;19;1061;-67
2022/10/23 10:36:21;;;;;;;;;;;;;;;18.39;43.54;95806.97;6126538;19;1685;-66
2022/10/23 10:38:39;;;;;;;;;;;;;;;18.35;43.02;95813.63;6099619;19;1332;-68
2022/10/23 10:40:43;;;;;;;;;;;;;;;18.42;43.20;95814.59;6122971;19;1530;-66
2022/10/23 10:42:57;;;;;;;;;;;;;;;18.45;42.85;95832.03;6123858;19;995;-65
2022/10/23 10:45:18;;;;;;;;;;;;;;;18.46;42.91;95815.88;6123547;19;1515;-66
2022/10/23 10:47:24;;;;;;;;;;;;;;;18.49;42.89;95815.50;6123438;19;1824;-66
2022/10/23 10:49:34;;;;;;;;;;;;;;;18.48;42.58;95824.53;6101246;19;1859;-66
2022/10/23 10:51:41;;;;;;;;;;;;;;;18.53;42.57;95824.00;6125498;19;1715;-65
2022/10/23 10:53:50;;;;;;;;;;;;;;;18.54;42.37;95826.47;6122809;19;1415;-65
2022/10/23 10:55:55;;;;;;;;;;;;;;;18.52;42.20;95823.16;6123701;19;1754;-66
2022/10/23 10:58:00;;;;;;;;;;;;;;;18.58;42.40;95810.13;6124217;19;1808;-65
2022/10/23 11:00:06;;;;;;;;;;;;;;;18.55;42.29;95806.84;6121900;19;1839;-66
2022/10/23 11:02:20;;;;;;;;;;;;;;;18.58;41.84;95803.00;6108416;19;1927;-66